Time;durP1;ratioP1;P1;durP2;ratioP2;P2;SDS_P1;SDS_P2;PMS_P1;PMS_P2;Temp;Humidity;BMP_temperature;BMP_pressure;BME280_temperature;BME280_humidity;BME280_pressure;Samples;Min_cycle;Max_cycle;Signal;HPM_P1;HPM_P2
2022/11/05 00:10:20;;;;;;;8.27;3.45;;;8.10;99.90;;;;;;4956716;28;20123;-73
2022/11/05 00:18:14;;;;;;;9.55;3.05;;;8.10;99.90;;;;;;4956603;28;20047;-73
2022/11/05 00:20:40;;;;;;;9.50;3.35;;;8.10;99.90;;;;;;4956672;28;20036;-73
2022/11/05 00:26:01;;;;;;;11.30;4.05;;;8.20;99.90;;;;;;4955147;29;20050;-73
2022/11/05 00:28:28;;;;;;;9.30;3.63;;;8.00;99.90;;;;;;4955043;28;20093;-73
2022/11/05 00:31:03;;;;;;;9.65;2.80;;;8.00;99.90;;;;;;4955050;29;20179;-73
2022/11/05 00:33:28;;;;;;;9.95;3.65;;;7.90;99.90;;;;;;4956035;28;20043;-73
2022/11/05 00:35:54;;;;;;;11.77;3.50;;;7.90;99.90;;;;;;4956230;28;20039;-73
2022/11/05 00:38:19;;;;;;;10.43;3.30;;;7.90;99.90;;;;;;4955941;28;20043;-73
2022/11/05 00:40:45;;;;;;;10.60;4.07;;;7.90;99.90;;;;;;4956139;28;20040;-73
2022/11/05 00:45:55;;;;;;;8.05;3.47;;;8.00;99.90;;;;;;4956234;28;20055;-73
2022/11/05 00:51:06;;;;;;;9.00;3.72;;;7.80;99.90;;;;;;4953585;28;20517;-73
2022/11/05 00:53:32;;;;;;;10.00;3.47;;;7.90;99.90;;;;;;4955654;28;20047;-73
2022/11/05 00:55:57;;;;;;;8.13;3.03;;;7.90;99.90;;;;;;4954499;29;20058;-73
2022/11/05 00:58:23;;;;;;;9.20;3.03;;;7.70;99.90;;;;;;4954448;28;20035;-73
2022/11/05 01:00:54;;;;;;;9.55;3.05;;;7.80;99.90;;;;;;4954479;29;20050;-73
2022/11/05 01:03:22;;;;;;;8.70;3.20;;;7.90;99.90;;;;;;4954190;29;20071;-73
2022/11/05 01:05:51;;;;;;;6.80;3.15;;;7.70;99.90;;;;;;4955558;28;20043;-73
2022/11/05 01:08:19;;;;;;;6.40;2.60;;;7.70;99.90;;;;;;4955572;28;20109;-73
2022/11/05 01:10:50;;;;;;;7.00;2.70;;;7.90;99.90;;;;;;4955808;28;20043;-73
2022/11/05 01:13:19;;;;;;;6.43;2.20;;;7.80;99.90;;;;;;4955422;28;20044;-73
2022/11/05 01:15:45;;;;;;;9.73;2.88;;;7.80;99.90;;;;;;4955498;28;20043;-73
2022/11/05 01:18:12;;;;;;;7.10;2.40;;;7.90;99.90;;;;;;4955460;28;20184;-73
2022/11/05 01:20:37;;;;;;;11.63;2.70;;;7.70;99.90;;;;;;4955343;28;20509;-73
2022/11/05 01:23:03;;;;;;;10.45;2.17;;;7.70;99.90;;;;;;4955005;28;20043;-73
2022/11/05 01:25:28;;;;;;;7.85;2.92;;;7.90;99.90;;;;;;4955328;28;20122;-73
2022/11/05 01:27:54;;;;;;;7.47;2.30;;;7.80;99.90;;;;;;4937938;29;20402;-73
2022/11/05 01:30:20;;;;;;;6.57;2.00;;;7.80;99.90;;;;;;4954002;29;20039;-73
2022/11/05 01:32:46;;;;;;;7.80;2.28;;;7.60;99.90;;;;;;4953837;29;20452;-73
2022/11/05 01:35:14;;;;;;;5.93;2.35;;;7.60;99.90;;;;;;4952426;28;20167;-73
2022/11/05 01:37:40;;;;;;;9.65;2.65;;;7.70;99.90;;;;;;4935693;29;20055;-74
2022/11/05 01:40:07;;;;;;;3.88;1.85;;;7.60;99.90;;;;;;4936011;29;20040;-73
2022/11/05 01:42:33;;;;;;;5.80;2.38;;;7.60;99.90;;;;;;4934270;29;20144;-73
2022/11/05 01:45:08;;;;;;;5.95;2.28;;;7.50;99.90;;;;;;4934832;29;20118;-73
2022/11/05 01:47:59;;;;;;;7.60;2.78;;;7.60;99.90;;;;;;4935511;29;20047;-73
2022/11/05 01:50:41;;;;;;;7.05;2.35;;;7.70;99.90;;;;;;4935886;29;20044;-74
2022/11/05 01:53:34;;;;;;;9.88;2.10;;;7.50;99.90;;;;;;4935541;29;20083;-73
2022/11/05 01:56:23;;;;;;;7.15;2.35;;;7.70;99.90;;;;;;4932790;29;20557;-73
2022/11/05 01:59:05;;;;;;;4.55;2.30;;;7.60;99.90;;;;;;4935778;29;20051;-73
2022/11/05 02:01:31;;;;;;;4.40;1.88;;;7.60;99.90;;;;;;4935509;29;20036;-71
2022/11/05 02:04:03;;;;;;;10.05;2.05;;;7.50;99.90;;;;;;4935082;29;20071;-71
2022/11/05 02:06:33;;;;;;;8.70;1.97;;;7.60;99.90;;;;;;4935445;29;20082;-71
2022/11/05 02:09:21;;;;;;;8.65;2.63;;;7.70;99.90;;;;;;4935303;29;20283;-71
2022/11/05 02:11:48;;;;;;;7.40;1.85;;;7.50;99.90;;;;;;4934132;29;20051;-73
2022/11/05 02:14:14;;;;;;;8.55;2.15;;;7.50;99.90;;;;;;4933995;29;20052;-73
2022/11/05 02:17:18;;;;;;;5.82;1.73;;;7.50;99.90;;;;;;4933910;29;20498;-73
2022/11/05 02:19:43;;;;;;;;;;;7.40;99.90;;;;;;4934320;29;20048;-73
2022/11/05 02:22:45;;;;;;;6.65;2.03;;;7.50;99.90;;;;;;4933872;29;19918;-73
2022/11/05 02:25:55;;;;;;;5.63;1.95;;;7.70;99.90;;;;;;4933866;29;20066;-73
2022/11/05 02:28:33;;;;;;;5.60;1.80;;;7.50;99.90;;;;;;4933694;29;20123;-73
2022/11/05 02:31:11;;;;;;;10.25;2.13;;;7.50;99.90;;;;;;4934039;29;20383;-73
2022/11/05 02:33:58;;;;;;;8.35;1.98;;;7.60;99.90;;;;;;4933558;29;20058;-73
2022/11/05 02:36:42;;;;;;;6.97;1.88;;;7.40;99.90;;;;;;4933638;29;20054;-73
2022/11/05 02:39:38;;;;;;;6.15;1.88;;;7.30;99.90;;;;;;4934686;29;20070;-73
2022/11/05 02:42:26;;;;;;;6.13;1.95;;;7.40;99.90;;;;;;4935110;29;20043;-71
2022/11/05 02:45:04;;;;;;;6.53;1.70;;;7.40;99.90;;;;;;4931718;29;20052;-71
2022/11/05 02:48:05;;;;;;;3.63;1.98;;;7.40;99.90;;;;;;4933532;29;20506;-71
2022/11/05 02:50:45;;;;;;;5.63;2.03;;;7.30;99.90;;;;;;4934791;29;20054;-73
2022/11/05 02:53:18;;;;;;;3.90;1.83;;;7.40;99.90;;;;;;4934628;29;20045;-73
2022/11/05 02:55:52;;;;;;;10.82;1.83;;;7.50;99.90;;;;;;4934680;29;20119;-73
2022/11/05 02:58:17;;;;;;;4.05;1.25;;;7.50;99.90;;;;;;4934496;29;20047;-73
2022/11/05 03:00:54;;;;;;;9.07;2.10;;;7.30;99.90;;;;;;4934477;29;20035;-73
2022/11/05 03:03:41;;;;;;;6.78;2.08;;;7.50;99.90;;;;;;4934492;29;20120;-73
2022/11/05 03:06:33;;;;;;;4.93;1.85;;;7.30;99.90;;;;;;4934559;29;20051;-73
2022/11/05 03:09:24;;;;;;;6.30;1.85;;;7.20;99.90;;;;;;4934380;29;20529;-73
2022/11/05 03:12:20;;;;;;;8.35;2.53;;;7.30;99.90;;;;;;4934722;29;20075;-73
2022/11/05 03:14:59;;;;;;;5.88;2.00;;;7.50;99.90;;;;;;4932718;29;20062;-73
2022/11/05 03:17:51;;;;;;;7.60;3.00;;;7.40;99.90;;;;;;4934524;29;20732;-71
2022/11/05 03:20:33;;;;;;;6.55;2.00;;;7.20;99.90;;;;;;4933381;29;20047;-72
2022/11/05 03:22:59;;;;;;;3.78;2.03;;;7.40;99.90;;;;;;4934168;29;20039;-72
2022/11/05 03:25:27;;;;;;;8.85;3.20;;;7.30;99.90;;;;;;4933238;29;20039;-72
2022/11/05 03:27:57;;;;;;;9.57;4.00;;;7.20;99.90;;;;;;4934529;29;20173;-72
2022/11/05 03:30:24;;;;;;;11.20;3.67;;;7.20;99.90;;;;;;4934509;29;20046;-72
2022/11/05 03:32:55;;;;;;;7.35;2.58;;;7.40;99.90;;;;;;4934126;29;20044;-72
2022/11/05 03:35:29;;;;;;;7.43;3.45;;;7.30;99.90;;;;;;4934469;29;20074;-72
2022/11/05 03:38:00;;;;;;;6.18;2.28;;;7.20;99.90;;;;;;4957476;23;20048;-68
2022/11/05 03:40:30;;;;;;;7.45;3.10;;;7.10;99.90;;;;;;4935626;29;20054;-68
2022/11/05 03:42:58;;;;;;;8.55;2.30;;;7.20;99.90;;;;;;4953295;29;20386;-68
2022/11/05 03:46:01;;;;;;;5.60;2.45;;;7.30;99.90;;;;;;4953206;29;20047;-69
2022/11/05 03:48:29;;;;;;;7.15;2.65;;;7.30;99.90;;;;;;4892363;29;20045;-71
2022/11/05 03:51:24;;;;;;;4.18;2.17;;;7.00;99.90;;;;;;4941590;29;20114;-70
2022/11/05 03:53:54;;;;;;;11.10;2.55;;;7.10;99.90;;;;;;4952869;29;20043;-71
2022/11/05 03:56:27;;;;;;;3.58;2.42;;;7.20;99.90;;;;;;4936115;29;20483;-71
2022/11/05 03:58:54;;;;;;;7.38;2.30;;;7.10;99.90;;;;;;4967742;28;20047;-71
2022/11/05 04:01:20;;;;;;;5.13;2.10;;;7.00;99.90;;;;;;4953177;28;20042;-71
2022/11/05 04:03:45;;;;;;;6.18;2.00;;;7.10;99.90;;;;;;4952939;29;20050;-71
2022/11/05 04:14:25;;;;;;;7.38;2.55;;;7.40;99.90;;;;;;4952860;29;20098;-71
2022/11/05 04:17:06;;;;;;;6.70;2.97;;;7.40;99.90;;;;;;4967809;28;20075;-71
2022/11/05 04:25:06;;;;;;;7.57;2.80;;;7.20;99.90;;;;;;4953398;28;20616;-71
2022/11/05 04:27:32;;;;;;;5.32;2.92;;;7.40;99.90;;;;;;4956231;29;20047;-71
2022/11/05 04:32:42;;;;;;;6.22;2.35;;;7.20;99.90;;;;;;4970803;28;20058;-71
2022/11/05 04:35:07;;;;;;;8.38;3.17;;;7.30;99.90;;;;;;4938932;29;20043;-70
2022/11/05 04:37:33;;;;;;;6.32;3.08;;;7.40;99.90;;;;;;4956178;29;20082;-71
2022/11/05 04:39:58;;;;;;;8.40;2.75;;;7.40;99.90;;;;;;4955867;28;20548;-71
2022/11/05 04:42:24;;;;;;;6.68;2.65;;;7.20;99.90;;;;;;4955605;29;20046;-71
2022/11/05 04:44:49;;;;;;;6.10;2.58;;;7.30;99.90;;;;;;4955833;29;20035;-71
2022/11/05 04:47:15;;;;;;;6.32;2.83;;;7.30;99.90;;;;;;4938664;29;20054;-71
2022/11/05 04:49:40;;;;;;;6.85;2.70;;;7.40;99.90;;;;;;4938810;29;20536;-71
2022/11/05 04:52:06;;;;;;;5.70;3.22;;;7.20;99.90;;;;;;4938590;29;20102;-71
2022/11/05 04:54:31;;;;;;;10.32;3.30;;;7.20;99.90;;;;;;4938224;29;20047;-70
2022/11/05 04:56:57;;;;;;;9.93;3.78;;;7.30;99.90;;;;;;4955603;28;20074;-71
2022/11/05 04:59:22;;;;;;;13.10;3.47;;;7.40;99.90;;;;;;4955798;28;20036;-71
2022/11/05 05:01:51;;;;;;;10.90;3.60;;;7.20;99.90;;;;;;4955798;29;20046;-71
2022/11/05 05:04:17;;;;;;;6.70;3.10;;;7.30;99.90;;;;;;4938312;29;20039;-70
2022/11/05 05:06:43;;;;;;;8.15;3.67;;;7.20;99.90;;;;;;4938301;29;20454;-71
2022/11/05 05:09:08;;;;;;;10.38;3.58;;;7.10;99.90;;;;;;4938209;29;20062;-71
2022/11/05 05:11:34;;;;;;;9.60;3.85;;;7.20;99.90;;;;;;4955372;29;20047;-70
2022/11/05 05:13:59;;;;;;;6.65;3.55;;;7.20;99.90;;;;;;4937879;29;20039;-71
2022/11/05 05:16:26;;;;;;;7.28;3.40;;;7.30;99.90;;;;;;4955418;29;20039;-71
2022/11/05 05:18:52;;;;;;;8.10;3.72;;;7.10;99.90;;;;;;4955423;28;20043;-70
2022/11/05 05:21:38;;;;;;;8.40;3.70;;;7.30;99.90;;;;;;4938118;29;20043;-70
2022/11/05 05:24:07;;;;;;;6.72;3.63;;;7.00;99.90;;;;;;4937718;29;20127;-71
2022/11/05 05:26:34;;;;;;;7.90;4.60;;;7.20;99.90;;;;;;4938083;29;20075;-71
2022/11/05 05:29:00;;;;;;;11.50;4.05;;;7.00;99.90;;;;;;4955231;28;20050;-71
2022/11/05 05:31:25;;;;;;;7.35;4.10;;;7.00;99.90;;;;;;4955249;29;20047;-71
2022/11/05 05:33:54;;;;;;;7.22;3.70;;;7.10;99.90;;;;;;4937569;29;20039;-71
2022/11/05 05:36:21;;;;;;;12.15;4.38;;;7.00;99.90;;;;;;4954747;28;20040;-71
2022/11/05 05:38:46;;;;;;;12.27;5.13;;;7.10;99.90;;;;;;4954324;28;20066;-71
2022/11/05 05:41:12;;;;;;;11.48;4.45;;;6.90;99.90;;;;;;4955057;29;20534;-71
2022/11/05 05:43:37;;;;;;;9.50;4.88;;;7.20;99.90;;;;;;4954742;29;20045;-70
2022/11/05 05:46:04;;;;;;;9.75;4.38;;;7.10;99.90;;;;;;4969918;28;20474;-71
2022/11/05 05:48:30;;;;;;;6.70;4.40;;;6.90;99.90;;;;;;4954793;28;20106;-71
2022/11/05 05:51:00;;;;;;;7.55;4.25;;;7.20;99.90;;;;;;4954754;29;20041;-70
2022/11/05 05:53:26;;;;;;;12.15;4.65;;;6.90;99.90;;;;;;4937098;28;20039;-71
2022/11/05 05:55:53;;;;;;;10.30;4.55;;;6.90;99.90;;;;;;4954521;29;20490;-71
2022/11/05 05:58:18;;;;;;;7.70;4.50;;;6.90;99.90;;;;;;4937509;29;20536;-71
2022/11/05 06:00:44;;;;;;;10.10;4.95;;;6.90;99.90;;;;;;4937651;29;20051;-71
2022/11/05 06:03:09;;;;;;;8.73;4.40;;;7.00;99.90;;;;;;4968974;28;20075;-71
2022/11/05 06:05:35;;;;;;;8.20;4.57;;;6.90;99.90;;;;;;4954492;29;20085;-71
2022/11/05 06:08:00;;;;;;;11.07;5.32;;;7.00;99.90;;;;;;4969103;28;20119;-71
2022/11/05 06:10:26;;;;;;;9.60;5.32;;;6.80;99.90;;;;;;4937146;29;20046;-71
2022/11/05 06:12:51;;;;;;;9.13;4.95;;;6.80;99.90;;;;;;4968859;28;20036;-71
2022/11/05 06:15:17;;;;;;;12.38;5.35;;;7.00;99.90;;;;;;4937383;29;20042;-71
2022/11/05 06:17:43;;;;;;;7.40;4.82;;;6.80;99.90;;;;;;4936894;29;20051;-71
2022/11/05 06:20:10;;;;;;;9.13;4.88;;;7.10;99.90;;;;;;4936955;29;20046;-71
2022/11/05 06:22:36;;;;;;;11.55;5.03;;;7.20;99.90;;;;;;4936579;29;20047;-71
2022/11/05 06:25:01;;;;;;;8.80;5.35;;;7.10;99.90;;;;;;4954334;29;20058;-70
2022/11/05 06:27:28;;;;;;;8.13;4.97;;;7.00;99.90;;;;;;4937138;29;20163;-71
2022/11/05 06:29:53;;;;;;;8.32;5.88;;;7.10;99.90;;;;;;4954019;28;20098;-71
2022/11/05 06:32:19;;;;;;;8.63;5.65;;;7.00;99.90;;;;;;4953826;29;20043;-71
2022/11/05 06:34:44;;;;;;;12.55;6.35;;;7.30;99.90;;;;;;4936582;29;20070;-71
2022/11/05 06:37:10;;;;;;;12.52;6.15;;;7.10;99.90;;;;;;4936418;29;20058;-71
2022/11/05 06:39:35;;;;;;;9.88;5.90;;;7.20;99.90;;;;;;4936467;29;20043;-73
2022/11/05 06:42:01;;;;;;;9.73;6.05;;;7.10;99.90;;;;;;4953844;29;20047;-72
2022/11/05 06:44:26;;;;;;;12.32;6.32;;;7.20;99.90;;;;;;4953467;29;20413;-71
2022/11/05 06:46:52;;;;;;;8.63;5.93;;;7.10;99.90;;;;;;4953821;29;20386;-71
2022/11/05 06:49:17;;;;;;;8.40;5.97;;;7.40;99.90;;;;;;4967642;28;20075;-71
2022/11/05 06:51:43;;;;;;;13.05;6.47;;;7.40;99.90;;;;;;4953566;28;20594;-71
2022/11/05 06:54:09;;;;;;;10.80;6.43;;;7.10;99.90;;;;;;4968035;28;20517;-71
2022/11/05 06:56:34;;;;;;;9.40;6.88;;;7.30;99.90;;;;;;4968497;28;20039;-71
2022/11/05 06:59:00;;;;;;;8.98;5.95;;;7.20;99.90;;;;;;4953563;28;20043;-71
2022/11/05 07:01:25;;;;;;;10.27;7.03;;;7.20;99.90;;;;;;4953691;29;20508;-71
2022/11/05 07:03:51;;;;;;;11.65;6.28;;;7.20;99.90;;;;;;4968159;28;20407;-71
2022/11/05 07:06:16;;;;;;;9.18;5.72;;;7.40;99.90;;;;;;4953446;28;20114;-69
2022/11/05 07:08:42;;;;;;;7.75;5.75;;;7.30;99.90;;;;;;4953614;28;20039;-70
2022/11/05 07:11:07;;;;;;;13.00;6.90;;;7.40;99.90;;;;;;4953411;29;20497;-70
2022/11/05 07:13:33;;;;;;;9.25;5.75;;;7.40;99.90;;;;;;4953383;29;20077;-69
2022/11/05 07:15:58;;;;;;;9.68;6.07;;;7.30;99.90;;;;;;4953310;29;20464;-70
2022/11/05 07:18:24;;;;;;;7.95;5.57;;;7.30;99.90;;;;;;4936294;29;20047;-70
2022/11/05 07:20:50;;;;;;;8.30;6.40;;;7.20;99.90;;;;;;4953410;29;20046;-70
2022/11/05 07:23:15;;;;;;;9.65;5.47;;;7.40;99.90;;;;;;4953173;29;20476;-70
2022/11/05 07:25:42;;;;;;;10.25;5.85;;;7.40;99.90;;;;;;4968299;28;20056;-69
2022/11/05 07:28:09;;;;;;;12.15;6.35;;;7.50;99.90;;;;;;4968411;28;20398;-69
2022/11/05 07:30:35;;;;;;;7.93;5.60;;;7.70;99.90;;;;;;4936230;29;20465;-70
2022/11/05 07:33:02;;;;;;;11.18;6.15;;;7.70;99.90;;;;;;4934022;29;20039;-69
2022/11/05 07:35:27;;;;;;;11.27;6.50;;;7.90;99.90;;;;;;4953125;29;20102;-70
2022/11/05 07:37:54;;;;;;;10.40;6.63;;;7.90;99.90;;;;;;4953066;28;20554;-69
2022/11/05 07:40:21;;;;;;;11.30;5.93;;;8.00;99.90;;;;;;4935797;29;20518;-69
2022/11/05 07:42:52;;;;;;;15.82;5.53;;;8.40;99.90;;;;;;4935739;29;20047;-69
2022/11/05 07:45:18;;;;;;;6.07;4.85;;;8.30;99.90;;;;;;4953229;29;20043;-69
2022/11/05 07:47:52;;;;;;;9.52;4.97;;;8.50;99.90;;;;;;4953249;29;20061;-69
2022/11/05 07:50:19;;;;;;;11.57;5.22;;;8.50;99.90;;;;;;4953385;29;20046;-69
2022/11/05 07:52:46;;;;;;;9.82;5.35;;;8.60;99.90;;;;;;4935917;29;20043;-70
2022/11/05 07:55:12;;;;;;;8.63;5.13;;;8.90;99.90;;;;;;4953240;29;20058;-69
2022/11/05 07:57:46;;;;;;;8.52;4.68;;;8.80;99.90;;;;;;4935847;29;20057;-69
2022/11/05 08:00:15;;;;;;;6.13;4.93;;;9.00;99.90;;;;;;4936650;29;20039;-69
2022/11/05 08:02:41;;;;;;;11.70;5.05;;;9.20;99.90;;;;;;4956370;29;20126;-69
2022/11/05 08:05:07;;;;;;;9.95;4.65;;;9.30;99.90;;;;;;4956907;29;20039;-70
2022/11/05 08:07:33;;;;;;;6.40;4.68;;;9.20;99.90;;;;;;4939316;29;20078;-69
2022/11/05 08:09:59;;;;;;;7.70;4.25;;;9.20;99.90;;;;;;4956424;28;20460;-70
2022/11/05 08:12:24;;;;;;;8.73;4.72;;;9.40;99.90;;;;;;4939004;29;20102;-70
2022/11/05 08:14:50;;;;;;;6.50;4.20;;;9.20;99.90;;;;;;4955501;29;20047;-69
2022/11/05 08:17:17;;;;;;;7.95;4.53;;;9.30;99.90;;;;;;4956150;29;20048;-69
2022/11/05 08:19:42;;;;;;;5.70;4.25;;;9.40;99.90;;;;;;4939034;29;20042;-69
2022/11/05 08:22:08;;;;;;;13.63;5.10;;;9.30;99.90;;;;;;4938982;29;20122;-70
2022/11/05 08:24:33;;;;;;;8.00;4.55;;;9.30;99.90;;;;;;4938953;29;20043;-70
2022/11/05 08:26:59;;;;;;;6.65;4.40;;;9.30;99.90;;;;;;4956239;29;20082;-70
2022/11/05 08:29:24;;;;;;;11.50;5.45;;;9.40;99.90;;;;;;4938896;29;20495;-69
2022/11/05 08:31:50;;;;;;;8.68;4.82;;;9.20;99.90;;;;;;4956005;29;20513;-70
2022/11/05 08:34:16;;;;;;;10.55;4.28;;;9.40;99.90;;;;;;4938519;29;20122;-70
2022/11/05 08:36:45;;;;;;;11.23;5.50;;;9.30;99.90;;;;;;4956113;29;20050;-70
2022/11/05 08:39:11;;;;;;;11.68;4.60;;;9.30;99.90;;;;;;4955941;28;20070;-71
2022/11/05 08:41:37;;;;;;;9.50;4.60;;;9.40;99.90;;;;;;4938780;29;20043;-70
2022/11/05 08:44:02;;;;;;;7.97;4.40;;;9.30;99.90;;;;;;4955671;29;20456;-69
2022/11/05 08:46:28;;;;;;;9.70;4.22;;;9.50;99.90;;;;;;4938532;29;20047;-70
2022/11/05 08:48:53;;;;;;;8.82;4.72;;;9.60;99.90;;;;;;4938443;29;20031;-69
2022/11/05 08:51:19;;;;;;;6.38;3.97;;;9.50;99.90;;;;;;4955699;29;20505;-69
2022/11/05 08:53:44;;;;;;;6.70;4.32;;;9.50;99.90;;;;;;4938405;29;20043;-69
2022/11/05 08:56:10;;;;;;;7.78;4.88;;;9.50;99.90;;;;;;4938442;29;20051;-69
2022/11/05 08:58:36;;;;;;;7.03;4.40;;;9.60;99.90;;;;;;4955553;28;20039;-69
2022/11/05 09:01:03;;;;;;;9.05;4.40;;;9.60;99.90;;;;;;4938287;29;20469;-71
2022/11/05 09:03:28;;;;;;;8.45;4.43;;;9.50;99.90;;;;;;4955267;29;20052;-69
2022/11/05 09:05:54;;;;;;;6.68;4.75;;;9.60;99.90;;;;;;4970564;28;20413;-69
2022/11/05 09:08:20;;;;;;;6.30;4.05;;;9.60;99.90;;;;;;4954376;28;20519;-70
2022/11/05 09:10:46;;;;;;;6.60;4.30;;;9.70;99.90;;;;;;4938171;29;20528;-68
2022/11/05 09:13:12;;;;;;;10.13;4.35;;;9.60;99.90;;;;;;4954095;28;20114;-70
2022/11/05 09:15:39;;;;;;;9.80;4.28;;;9.60;99.90;;;;;;4938044;29;20123;-70
2022/11/05 09:18:05;;;;;;;9.63;4.20;;;9.70;99.90;;;;;;4937851;28;20035;-70
2022/11/05 09:20:32;;;;;;;7.43;4.43;;;9.70;99.90;;;;;;4937122;29;20110;-69
2022/11/05 09:22:57;;;;;;;9.20;6.32;;;9.70;99.90;;;;;;4954316;28;20640;-70
2022/11/05 09:25:23;;;;;;;9.40;4.65;;;9.80;99.90;;;;;;4937454;29;20045;-69
2022/11/05 09:27:48;;;;;;;10.70;4.60;;;9.70;99.90;;;;;;4937571;29;20121;-69
2022/11/05 09:30:14;;;;;;;7.53;4.25;;;9.70;99.90;;;;;;4953492;29;20073;-70
2022/11/05 09:32:40;;;;;;;10.50;3.83;;;9.80;99.90;;;;;;4954489;29;20035;-69
2022/11/05 09:35:07;;;;;;;7.20;4.28;;;9.80;99.90;;;;;;4954922;28;20556;-69
2022/11/05 09:37:33;;;;;;;9.65;4.65;;;9.90;99.90;;;;;;4937603;29;20413;-70
2022/11/05 09:39:58;;;;;;;9.23;4.20;;;9.90;99.90;;;;;;4989855;23;20047;-73
2022/11/05 09:42:36;;;;;;;9.63;5.32;;;9.90;99.90;;;;;;4973481;28;20193;-73
2022/11/05 09:45:08;;;;;;;8.88;4.30;;;9.90;99.90;;;;;;4974435;28;20050;-73
2022/11/05 09:47:50;;;;;;;12.38;5.38;;;10.00;99.90;;;;;;4956963;28;20527;-71
2022/11/05 09:50:32;;;;;;;7.85;4.13;;;10.00;99.90;;;;;;4971087;28;20054;-72
2022/11/05 09:52:58;;;;;;;6.43;4.00;;;9.90;99.90;;;;;;4974025;28;20043;-72
2022/11/05 09:55:32;;;;;;;8.68;4.25;;;10.00;99.90;;;;;;4972810;28;20038;-72
2022/11/05 09:58:00;;;;;;;11.98;4.45;;;10.10;99.90;;;;;;4972682;28;20051;-72
2022/11/05 10:00:27;;;;;;;9.68;4.80;;;10.10;99.90;;;;;;4972685;28;20470;-72
2022/11/05 10:02:57;;;;;;;6.40;3.47;;;10.20;99.90;;;;;;4973592;28;20035;-72
2022/11/05 10:05:27;;;;;;;8.55;3.83;;;10.20;99.90;;;;;;4972674;28;20039;-72
2022/11/05 10:08:01;;;;;;;9.90;3.85;;;10.30;99.90;;;;;;4974015;28;20062;-72
2022/11/05 10:10:47;;;;;;;6.55;3.85;;;10.40;99.90;;;;;;4972793;28;20514;-72
2022/11/05 10:13:35;;;;;;;8.20;3.60;;;10.30;99.90;;;;;;4973033;28;20066;-72
2022/11/05 10:16:12;;;;;;;7.15;3.53;;;10.40;99.90;;;;;;4973931;28;20117;-72
2022/11/05 10:18:46;;;;;;;7.22;3.60;;;10.40;99.90;;;;;;4973855;28;20053;-72
2022/11/05 10:21:18;;;;;;;4.38;3.00;;;10.40;99.90;;;;;;4973699;28;20042;-72
2022/11/05 10:23:47;;;;;;;5.50;3.40;;;10.50;99.90;;;;;;4972912;28;20576;-72
2022/11/05 10:26:18;;;;;;;6.13;3.63;;;10.60;99.90;;;;;;4973497;28;20581;-72
2022/11/05 10:28:43;;;;;;;7.72;3.50;;;10.70;99.90;;;;;;4973640;28;20097;-72
2022/11/05 10:31:13;;;;;;;8.70;3.75;;;10.70;99.90;;;;;;4973669;28;20046;-73
2022/11/05 10:33:45;;;;;;;8.13;3.33;;;10.70;99.90;;;;;;4973178;28;20505;-73
2022/11/05 10:36:21;;;;;;;6.32;3.00;;;10.80;99.90;;;;;;4988072;28;20081;-74
2022/11/05 10:38:47;;;;;;;6.63;3.33;;;10.80;99.90;;;;;;4967738;28;20035;-74
2022/11/05 10:41:37;;;;;;;7.65;2.95;;;10.90;99.90;;;;;;4973187;28;20039;-73
2022/11/05 10:44:27;;;;;;;7.88;3.38;;;10.80;99.90;;;;;;4974253;28;20050;-73
2022/11/05 10:47:12;;;;;;;9.85;3.67;;;10.80;99.90;;;;;;4971727;28;20113;-72
2022/11/05 10:49:48;;;;;;;5.70;2.85;;;10.90;99.90;;;;;;4963620;28;20053;-72
2022/11/05 10:52:35;;;;;;;4.85;2.72;;;10.90;99.90;;;;;;4953600;28;20058;-73
2022/11/05 10:55:15;;;;;;;7.50;2.55;;;11.00;99.90;;;;;;4953909;29;20054;-72
2022/11/05 10:57:41;;;;;;;5.78;2.72;;;11.10;99.90;;;;;;4954143;29;20047;-74
2022/11/05 11:00:13;;;;;;;6.15;2.42;;;11.00;99.90;;;;;;4960184;28;20622;-74
2022/11/05 11:02:40;;;;;;;11.57;2.97;;;11.10;99.90;;;;;;4957431;28;20505;-73
2022/11/05 11:05:07;;;;;;;7.07;3.38;;;11.10;99.90;;;;;;4952662;29;20286;-72
2022/11/05 11:07:33;;;;;;;4.97;2.55;;;11.20;99.90;;;;;;4952642;29;20051;-74
2022/11/05 11:09:59;;;;;;;5.80;2.30;;;11.20;99.90;;;;;;4952227;28;20071;-72
2022/11/05 11:12:36;;;;;;;4.50;2.20;;;11.10;99.90;;;;;;4953926;29;20521;-74
2022/11/05 11:15:03;;;;;;;5.78;2.60;;;11.10;99.90;;;;;;4952928;29;20051;-75
2022/11/05 11:17:31;;;;;;;7.20;2.70;;;11.10;99.90;;;;;;4953920;28;20401;-74
2022/11/05 11:20:23;;;;;;;8.70;2.67;;;11.20;99.90;;;;;;4966393;28;20276;-75
2022/11/05 11:23:15;;;;;;;4.38;1.80;;;11.20;99.90;;;;;;4967290;28;20038;-74
2022/11/05 11:25:52;;;;;;;4.13;1.85;;;11.20;99.90;;;;;;4968700;28;20110;-74
2022/11/05 11:28:25;;;;;;;7.07;2.28;;;11.30;99.90;;;;;;4963295;28;20051;-74
2022/11/05 11:31:00;;;;;;;5.07;1.90;;;11.20;99.90;;;;;;4972831;28;20035;-74
2022/11/05 11:33:27;;;;;;;9.65;4.00;;;11.40;99.90;;;;;;4972779;28;20042;-75
2022/11/05 11:35:52;;;;;;;11.25;2.85;;;11.40;99.90;;;;;;4975275;28;20078;-74
2022/11/05 11:38:22;;;;;;;4.13;1.77;;;11.50;99.90;;;;;;4976687;28;20049;-74
2022/11/05 11:40:47;;;;;;;6.45;2.30;;;11.70;99.90;;;;;;4977433;28;20051;-74
2022/11/05 11:43:35;;;;;;;6.72;2.17;;;11.70;99.90;;;;;;4977045;28;20053;-74
2022/11/05 11:46:03;;;;;;;5.50;2.10;;;11.70;99.90;;;;;;4976426;28;20093;-75
2022/11/05 11:48:30;;;;;;;3.72;1.52;;;11.80;99.90;;;;;;4977687;28;20045;-75
2022/11/05 11:50:57;;;;;;;3.25;1.77;;;11.80;99.90;;;;;;4976137;28;20647;-74
2022/11/05 11:53:33;;;;;;;5.00;1.35;;;11.90;99.90;;;;;;4977355;28;20081;-74
2022/11/05 11:56:03;;;;;;;4.75;1.88;;;12.00;99.90;;;;;;4977018;28;20113;-75
2022/11/05 11:58:52;;;;;;;4.40;1.48;;;11.90;99.90;;;;;;4977958;28;20034;-74
2022/11/05 12:01:30;;;;;;;7.05;2.28;;;12.00;99.90;;;;;;4975966;28;20459;-75
2022/11/05 12:04:33;;;;;;;4.18;1.48;;;12.00;99.90;;;;;;4976022;28;20070;-74
2022/11/05 12:06:58;;;;;;;5.97;1.90;;;12.00;99.90;;;;;;4977912;28;20053;-74
2022/11/05 12:10:03;;;;;;;3.17;1.67;;;12.00;99.90;;;;;;4975444;28;20278;-74
2022/11/05 12:12:50;;;;;;;5.32;1.48;;;12.00;99.90;;;;;;4975072;28;20054;-75
2022/11/05 12:15:31;;;;;;;6.45;1.63;;;11.80;99.90;;;;;;4976810;28;20046;-75
2022/11/05 12:18:03;;;;;;;3.33;1.45;;;11.80;99.90;;;;;;4974699;28;20162;-73
2022/11/05 12:21:06;;;;;;;2.72;1.20;;;11.70;99.90;;;;;;4974979;28;20049;-75
2022/11/05 12:24:07;;;;;;;3.47;1.40;;;11.70;99.90;;;;;;4974854;28;20086;-74
2022/11/05 12:26:36;;;;;;;5.80;1.30;;;11.60;99.90;;;;;;4972939;28;20043;-75
2022/11/05 12:29:34;;;;;;;2.72;1.10;;;11.60;99.90;;;;;;4975584;28;20039;-74
2022/11/05 12:32:06;;;;;;;1.83;0.80;;;11.70;99.90;;;;;;4975000;28;20038;-74
2022/11/05 12:34:40;;;;;;;1.63;0.77;;;11.70;99.90;;;;;;4973959;28;20489;-74
2022/11/05 12:37:14;;;;;;;2.47;0.60;;;11.70;99.90;;;;;;4975492;28;20051;-74
2022/11/05 12:39:56;;;;;;;1.80;0.93;;;11.70;99.90;;;;;;4975524;28;20043;-74
2022/11/05 12:42:25;;;;;;;5.35;1.77;;;11.60;99.90;;;;;;4972065;28;20118;-75
2022/11/05 12:45:38;;;;;;;4.30;1.65;;;11.60;99.90;;;;;;4971655;28;20478;-73
2022/11/05 12:48:33;;;;;;;2.72;0.90;;;11.60;99.90;;;;;;4896661;29;20063;-74
2022/11/05 12:51:26;;;;;;;3.42;0.80;;;11.50;99.90;;;;;;4954991;29;20047;-74
2022/11/05 12:54:12;;;;;;;2.08;1.30;;;11.50;99.90;;;;;;4970574;28;20047;-74
2022/11/05 12:56:46;;;;;;;4.45;0.98;;;11.40;99.90;;;;;;4956158;28;20413;-74
2022/11/05 12:59:38;;;;;;;4.32;1.45;;;11.50;99.90;;;;;;4954947;28;20046;-74
2022/11/05 13:02:33;;;;;;;5.72;1.48;;;11.40;99.90;;;;;;4971765;28;20454;-74
2022/11/05 13:05:24;;;;;;;2.47;1.00;;;11.40;99.90;;;;;;4971748;28;20464;-74
2022/11/05 13:08:03;;;;;;;2.78;1.50;;;11.40;99.90;;;;;;4945731;29;20058;-74
2022/11/05 13:10:34;;;;;;;3.33;1.38;;;11.40;99.90;;;;;;4955485;28;20043;-74
2022/11/05 13:13:30;;;;;;;4.57;1.27;;;11.30;99.90;;;;;;4970956;28;20047;-74
2022/11/05 13:16:24;;;;;;;5.00;1.17;;;11.30;99.90;;;;;;4921929;29;20055;-74
2022/11/05 13:19:17;;;;;;;3.10;1.10;;;11.20;99.90;;;;;;4955318;28;20053;-74
2022/11/05 13:22:08;;;;;;;3.83;1.02;;;11.10;99.90;;;;;;4955010;29;20070;-74
2022/11/05 13:24:53;;;;;;;3.42;1.45;;;11.10;99.90;;;;;;4955300;28;20043;-74
2022/11/05 13:27:44;;;;;;;5.35;1.80;;;11.00;99.90;;;;;;4954093;29;20055;-74
2022/11/05 13:30:20;;;;;;;3.78;1.05;;;11.10;99.90;;;;;;4954098;28;20102;-74
2022/11/05 13:32:57;;;;;;;2.45;1.20;;;11.20;99.90;;;;;;4953827;29;20126;-74
2022/11/05 13:35:28;;;;;;;1.85;1.23;;;11.10;99.90;;;;;;4955320;28;20118;-74
2022/11/05 13:41:04;;;;;;;2.58;1.42;;;11.10;99.90;;;;;;4955474;28;20054;-74
2022/11/05 13:43:56;;;;;;;5.40;1.80;;;11.30;99.90;;;;;;4955018;28;20031;-74
2022/11/05 13:46:44;;;;;;;6.57;1.73;;;11.30;99.90;;;;;;4955196;28;20051;-74
2022/11/05 13:49:28;;;;;;;7.20;1.85;;;11.30;99.90;;;;;;4955148;28;20067;-73
2022/11/05 13:51:56;;;;;;;7.13;3.22;;;11.30;99.90;;;;;;4955020;28;20159;-74
2022/11/05 13:54:47;;;;;;;9.18;2.72;;;11.30;99.90;;;;;;4953396;29;20055;-74
2022/11/05 13:57:31;;;;;;;4.80;2.13;;;11.20;99.90;;;;;;4954952;28;20131;-74
2022/11/05 14:00:05;;;;;;;5.00;1.70;;;11.30;99.90;;;;;;4954663;28;20047;-74
2022/11/05 14:02:42;;;;;;;4.82;1.73;;;11.30;99.90;;;;;;4954495;28;20039;-73